createdAt,value
2023-05-10T00:02:11.369Z,68.29
2023-05-10T00:04:44.854Z,67.90
2023-05-10T00:07:21.380Z,68.70
2023-05-10T00:09:53.240Z,68.74
2023-05-10T00:12:37.644Z,68.77
2023-05-10T00:15:21.144Z,68.91
2023-05-10T00:18:06.476Z,69.18
2023-05-10T00:56:43.174Z,69.53
2023-05-10T00:59:14.078Z,69.56
2023-05-10T01:01:44.282Z,69.58
2023-05-10T01:04:15.624Z,69.84
2023-05-10T01:06:46.261Z,69.80
2023-05-10T01:09:16.492Z,70.02
2023-05-10T01:11:48.759Z,70.24
2023-05-10T01:14:22.277Z,70.69
2023-05-10T01:16:53.850Z,70.87
2023-05-10T01:19:29.907Z,70.72
2023-05-10T01:22:17.876Z,71.01
2023-05-10T01:25:19.016Z,70.89
2023-05-10T01:28:12.660Z,70.73
2023-05-10T01:31:10.361Z,70.28
2023-05-10T01:34:02.490Z,70.23
2023-05-10T01:36:37.917Z,70.80
2023-05-10T01:39:29.268Z,70.52
2023-05-10T01:42:29.384Z,70.39
2023-05-10T01:45:18.486Z,70.31
2023-05-10T01:48:05.838Z,69.85
2023-05-10T01:50:40.123Z,69.79
2023-05-10T01:53:14.237Z,69.82
2023-05-10T01:55:56.533Z,70.15
2023-05-10T01:58:33.596Z,70.33
2023-05-10T02:01:07.268Z,70.49
2023-05-10T02:03:40.599Z,70.23
2023-05-10T02:06:13.618Z,70.04
2023-05-10T02:08:45.297Z,69.81
2023-05-10T02:11:17.963Z,69.95
2023-05-10T02:13:50.956Z,69.82
2023-05-10T02:16:25.489Z,70.11
2023-05-10T02:18:57.453Z,70.44
2023-05-10T02:21:31.518Z,70.48
2023-05-10T02:24:04.405Z,70.86
2023-05-10T02:26:38.069Z,70.90
2023-05-10T02:29:09.955Z,70.98
2023-05-10T02:31:41.911Z,71.10
2023-05-10T02:34:14.021Z,71.06
2023-05-10T02:36:45.654Z,71.27
2023-05-10T02:39:17.150Z,71.30
2023-05-10T02:41:50.245Z,71.38
2023-05-10T02:44:22.496Z,71.23
2023-05-10T02:46:52.922Z,71.35
2023-05-10T02:49:24.597Z,71.37
2023-05-10T02:52:03.637Z,71.92
2023-05-10T02:54:38.556Z,71.65
2023-05-10T02:57:10.803Z,71.36
2023-05-10T02:59:41.913Z,71.46
2023-05-10T03:02:13.584Z,71.51
2023-05-10T03:04:44.731Z,71.47
2023-05-10T03:07:15.088Z,71.60
2023-05-10T03:09:45.591Z,71.71
2023-05-10T03:12:31.408Z,71.48
2023-05-10T03:15:45.110Z,71.38
2023-05-10T03:18:54.347Z,71.17
2023-05-10T03:21:30.131Z,71.04
2023-05-10T03:24:09.430Z,71.25
2023-05-10T03:26:42.869Z,71.59
2023-05-10T03:29:20.058Z,71.74
2023-05-10T03:31:50.564Z,71.72
2023-05-10T03:34:27.490Z,71.64
2023-05-10T03:36:58.077Z,71.68
2023-05-10T03:39:30.258Z,71.67
2023-05-10T03:42:02.908Z,71.91
2023-05-10T03:44:35.646Z,71.47
2023-05-10T03:47:06.079Z,71.45
2023-05-10T03:49:36.568Z,71.57
2023-05-10T03:52:07.782Z,71.52
2023-05-10T03:54:39.121Z,71.74
2023-05-10T03:57:09.433Z,71.60
2023-05-10T03:59:39.520Z,71.63
2023-05-10T04:02:10.227Z,71.75
2023-05-10T04:04:41.602Z,71.93
2023-05-10T04:07:12.777Z,72.11
2023-05-10T04:09:44.273Z,72.32
2023-05-10T04:12:14.644Z,72.58
2023-05-10T04:14:44.657Z,72.68
2023-05-10T04:17:15.989Z,72.83
2023-05-10T04:19:47.385Z,72.99
2023-05-10T04:22:19.145Z,73.40
2023-05-10T04:24:49.456Z,73.23
2023-05-10T04:27:19.467Z,73.21
2023-05-10T04:29:51.088Z,73.43
2023-05-10T04:32:22.889Z,73.48
2023-05-10T04:34:56.377Z,73.65
2023-05-10T04:37:26.641Z,73.82
2023-05-10T04:39:57.844Z,74.10
2023-05-10T04:42:29.305Z,74.27
2023-05-10T04:45:02.201Z,74.44
2023-05-10T04:47:34.076Z,74.53
2023-05-10T04:50:04.524Z,74.66
2023-05-10T04:52:34.594Z,74.93
2023-05-10T04:55:06.203Z,74.75
2023-05-10T04:57:37.594Z,74.79
2023-05-10T05:00:09.468Z,74.86
2023-05-10T05:02:40.694Z,74.96
2023-05-10T05:05:11.937Z,74.88
2023-05-10T05:07:42.878Z,74.82
2023-05-10T05:10:14.090Z,75.00
2023-05-10T05:12:44.348Z,74.90
2023-05-10T05:15:14.428Z,74.76
2023-05-10T05:17:45.705Z,74.87
2023-05-10T05:20:17.265Z,74.68
2023-05-10T05:22:48.889Z,74.57
2023-05-10T05:25:19.603Z,74.35
2023-05-10T05:27:49.834Z,74.30
2023-05-10T05:30:21.752Z,74.40
2023-05-10T05:32:52.010Z,74.58
2023-05-10T05:35:22.183Z,74.48
2023-05-10T05:37:52.523Z,74.67
2023-05-10T05:40:23.856Z,74.78
2023-05-10T05:42:54.901Z,74.92
2023-05-10T05:45:26.328Z,74.92
2023-05-10T05:47:56.769Z,74.98
2023-05-10T05:50:27.561Z,74.69
2023-05-10T05:52:57.743Z,74.73
2023-05-10T05:55:28.472Z,74.63
2023-05-10T05:58:01.278Z,74.69
2023-05-10T06:00:32.227Z,74.60
2023-05-10T06:03:03.062Z,74.62
2023-05-10T06:05:33.973Z,74.69
2023-05-10T06:08:04.290Z,74.76
2023-05-10T06:10:35.527Z,74.83
2023-05-10T06:13:06.555Z,74.85
2023-05-10T06:15:37.110Z,74.79
2023-05-10T06:18:08.312Z,74.93
2023-05-10T06:20:39.187Z,74.78
2023-05-10T06:23:10.860Z,74.71
2023-05-10T06:25:41.652Z,74.54
2023-05-10T06:28:12.693Z,74.39
2023-05-10T06:30:44.062Z,74.41
2023-05-10T06:33:15.506Z,74.54
2023-05-10T06:35:45.804Z,74.52
2023-05-10T06:38:16.571Z,74.68
2023-05-10T06:40:47.358Z,74.69
2023-05-10T06:43:18.882Z,74.83
2023-05-10T06:45:50.396Z,74.76
2023-05-10T06:48:20.886Z,74.66
2023-05-10T06:50:51.448Z,74.80
2023-05-10T06:53:21.513Z,74.61
2023-05-10T06:55:52.685Z,74.63
2023-05-10T06:58:23.636Z,74.55
2023-05-10T07:00:53.834Z,74.64
2023-05-10T07:03:24.297Z,74.64
2023-05-10T07:05:54.357Z,74.41
2023-05-10T07:08:24.772Z,74.44
2023-05-10T07:10:55.544Z,74.54
2023-05-10T07:13:25.835Z,74.74
2023-05-10T07:15:55.907Z,74.75
2023-05-10T07:18:27.541Z,74.81
2023-05-10T07:20:58.966Z,74.74
2023-05-10T07:23:29.973Z,74.78
2023-05-10T07:26:00.471Z,74.50
2023-05-10T07:28:30.682Z,74.63
2023-05-10T07:31:01.414Z,74.55
2023-05-10T07:33:32.599Z,74.64
2023-05-10T07:36:03.568Z,74.55
2023-05-10T07:38:33.748Z,74.59
2023-05-10T07:41:04.063Z,74.60
2023-05-10T07:43:34.361Z,74.68
2023-05-10T07:46:04.410Z,74.63
2023-05-10T07:48:35.360Z,74.99
2023-05-10T07:51:06.586Z,75.05
2023-05-10T07:53:38.110Z,75.14
2023-05-10T07:56:26.134Z,75.29
2023-05-10T07:58:58.902Z,75.34
2023-05-10T08:01:30.003Z,75.33
2023-05-10T08:04:00.071Z,75.27
2023-05-10T08:06:33.492Z,75.32
2023-05-10T08:09:04.573Z,75.21
2023-05-10T08:11:38.424Z,75.31
2023-05-10T08:14:09.464Z,75.43
2023-05-10T08:16:40.584Z,75.48
2023-05-10T08:19:11.512Z,75.37
2023-05-10T08:21:43.091Z,75.43
2023-05-10T08:24:13.313Z,75.40
2023-05-10T08:26:43.587Z,75.31
2023-05-10T08:29:15.041Z,75.37
2023-05-10T08:31:45.395Z,75.42
2023-05-10T08:34:16.284Z,75.60
2023-05-10T08:36:46.999Z,75.59
2023-05-10T08:39:29.347Z,75.64
2023-05-10T08:42:05.003Z,75.62
2023-05-10T08:44:39.622Z,75.76
2023-05-10T08:47:11.996Z,75.79
2023-05-10T08:49:42.964Z,75.77
2023-05-10T08:52:16.354Z,75.79
2023-05-10T08:54:46.973Z,75.57
2023-05-10T08:57:17.716Z,75.93
2023-05-10T08:59:48.956Z,75.84
2023-05-10T09:02:21.749Z,76.05
2023-05-10T09:04:52.798Z,76.08
2023-05-10T09:07:24.010Z,76.09
2023-05-10T09:09:58.000Z,76.17
2023-05-10T09:12:29.168Z,76.16
2023-05-10T09:15:03.316Z,76.15
2023-05-10T09:17:33.797Z,76.15
2023-05-10T09:20:07.901Z,76.29
2023-05-10T09:22:39.799Z,76.08
2023-05-10T09:25:15.977Z,75.87
2023-05-10T09:27:52.593Z,75.86
2023-05-10T09:30:32.516Z,76.02
2023-05-10T09:33:03.652Z,75.93
2023-05-10T09:35:36.534Z,75.63
2023-05-10T09:38:07.984Z,76.16
2023-05-10T09:40:39.490Z,76.09
2023-05-10T09:43:11.094Z,75.94
2023-05-10T09:45:44.604Z,76.03
2023-05-10T09:48:19.604Z,75.90
2023-05-10T09:51:00.087Z,76.29
2023-05-10T09:53:31.224Z,76.20
2023-05-10T09:56:02.123Z,76.57
2023-05-10T09:58:33.222Z,76.61
2023-05-10T10:01:04.466Z,76.59
2023-05-10T10:03:35.937Z,76.73
2023-05-10T10:06:15.975Z,76.70
2023-05-10T10:08:56.243Z,76.60
2023-05-10T10:11:27.203Z,76.57
2023-05-10T10:13:58.709Z,76.54
2023-05-10T10:16:32.886Z,76.51
2023-05-10T10:19:04.058Z,76.35
2023-05-10T10:21:36.694Z,76.39
2023-05-10T10:24:08.197Z,75.90
2023-05-10T10:26:47.902Z,74.74
2023-05-10T10:29:34.801Z,74.80
2023-05-10T10:32:28.365Z,63.35
2023-05-10T10:34:59.842Z,57.94
2023-05-10T10:37:48.429Z,62.10
2023-05-10T10:40:34.820Z,55.79
2023-05-10T10:43:28.830Z,58.39
2023-05-10T10:46:21.860Z,61.33
2023-05-10T10:49:11.223Z,54.73
2023-05-10T10:51:42.238Z,47.16
2023-05-10T10:54:14.911Z,44.07
2023-05-10T10:56:48.610Z,43.96
2023-05-10T10:59:30.540Z,42.88
2023-05-10T11:02:02.715Z,41.69
2023-05-10T11:04:49.774Z,48.05
2023-05-10T11:07:22.081Z,50.64
2023-05-10T11:09:53.401Z,54.40
2023-05-10T11:12:24.408Z,49.24
2023-05-10T11:14:55.798Z,49.82
2023-05-10T11:17:28.880Z,51.22
2023-05-10T11:20:17.760Z,55.05
2023-05-10T11:22:57.207Z,56.85
2023-05-10T11:25:31.480Z,59.24
2023-05-10T11:28:08.411Z,60.33
2023-05-10T11:30:40.777Z,61.22
2023-05-10T11:33:12.824Z,61.51
2023-05-10T11:35:44.689Z,60.57
2023-05-10T11:38:17.411Z,59.24
2023-05-10T11:40:47.828Z,59.15
2023-05-10T11:43:18.611Z,60.50
2023-05-10T11:45:49.044Z,57.98
2023-05-10T11:48:24.661Z,58.06
2023-05-10T11:50:58.681Z,56.50
2023-05-10T11:53:37.013Z,56.19
2023-05-10T11:56:11.832Z,55.24
2023-05-10T11:58:43.526Z,55.70
2023-05-10T12:01:15.406Z,57.06
2023-05-10T12:03:45.800Z,56.19
2023-05-10T12:06:16.490Z,55.92
2023-05-10T12:08:54.892Z,56.68
2023-05-10T12:11:29.241Z,58.90
2023-05-10T12:13:59.553Z,59.02
2023-05-10T12:16:32.161Z,58.37
2023-05-10T12:19:03.615Z,58.84
2023-05-10T12:21:35.060Z,57.63
2023-05-10T12:24:08.006Z,56.36
2023-05-10T12:26:38.977Z,55.63
2023-05-10T12:29:22.162Z,55.11
2023-05-10T12:31:59.980Z,54.95
2023-05-10T12:34:34.437Z,52.65
2023-05-10T12:37:06.841Z,54.64
2023-05-10T12:39:48.483Z,53.85
2023-05-10T12:42:19.699Z,54.86
2023-05-10T12:44:50.695Z,53.60
2023-05-10T12:47:21.561Z,52.68
2023-05-10T12:49:52.873Z,54.18
2023-05-10T12:52:24.417Z,52.58
2023-05-10T12:54:56.805Z,52.84
2023-05-10T12:57:28.175Z,52.14
2023-05-10T12:59:58.538Z,53.97
2023-05-10T13:02:29.836Z,55.37
2023-05-10T13:05:00.561Z,54.74
2023-05-10T13:07:32.088Z,55.58
2023-05-10T13:10:02.498Z,55.27
2023-05-10T13:12:33.805Z,56.73
2023-05-10T13:15:05.420Z,57.73
2023-05-10T13:17:35.674Z,58.36
2023-05-10T13:20:05.874Z,54.46
2023-05-10T13:22:40.500Z,53.08
2023-05-10T13:25:11.472Z,52.93
2023-05-10T13:27:43.742Z,52.70
2023-05-10T13:30:14.634Z,51.01
2023-05-10T13:32:44.824Z,53.17
2023-05-10T13:35:15.297Z,50.78
2023-05-10T13:37:46.295Z,50.67
2023-05-10T13:40:18.977Z,53.19
2023-05-10T13:42:49.502Z,50.57
2023-05-10T13:45:20.378Z,52.06
2023-05-10T13:47:51.062Z,52.86
2023-05-10T13:50:22.268Z,52.20
2023-05-10T13:52:53.253Z,50.86
2023-05-10T13:55:24.163Z,50.53
2023-05-10T13:57:55.962Z,53.61
2023-05-10T14:00:29.316Z,53.03
2023-05-10T14:03:02.377Z,52.11
2023-05-10T14:05:32.903Z,52.46
2023-05-10T14:08:04.674Z,52.49
2023-05-10T14:10:34.851Z,52.83
2023-05-10T14:13:06.431Z,52.70
2023-05-10T14:15:36.808Z,54.23
2023-05-10T14:18:06.909Z,54.76
2023-05-10T14:20:38.640Z,54.04
2023-05-10T14:23:11.198Z,54.82
2023-05-10T14:25:45.004Z,53.87
2023-05-10T14:28:15.379Z,55.45
2023-05-10T14:30:45.543Z,56.20
2023-05-10T14:33:16.695Z,56.26
2023-05-10T14:35:49.835Z,57.09
2023-05-10T14:38:20.807Z,57.71
2023-05-10T14:40:50.844Z,56.70
2023-05-10T14:43:21.027Z,56.14
2023-05-10T14:45:51.099Z,57.05
2023-05-10T14:48:21.458Z,57.13
2023-05-10T14:50:52.967Z,57.09
2023-05-10T14:53:23.285Z,57.45
2023-05-10T14:55:54.137Z,57.51
2023-05-10T14:58:25.076Z,60.33
2023-05-10T15:00:58.214Z,58.70
2023-05-10T15:03:29.270Z,57.94
2023-05-10T15:06:00.652Z,57.69
2023-05-10T15:08:37.832Z,59.50
2023-05-10T15:11:21.429Z,59.31
2023-05-10T15:13:56.910Z,59.87
2023-05-10T15:16:35.822Z,59.47
2023-05-10T15:19:09.903Z,58.96
2023-05-10T15:21:47.964Z,58.75
2023-05-10T15:24:38.663Z,58.96
2023-05-10T15:27:12.667Z,60.13
2023-05-10T15:29:42.974Z,58.99
2023-05-10T15:32:13.574Z,58.59
2023-05-10T15:34:59.590Z,59.31
2023-05-10T15:37:40.392Z,56.76
2023-05-10T15:40:26.219Z,56.68
2023-05-10T15:42:58.934Z,57.90
2023-05-10T15:45:32.892Z,57.38
2023-05-10T15:48:14.359Z,58.18
2023-05-10T15:50:51.270Z,53.94
2023-05-10T15:53:28.146Z,51.35
2023-05-10T15:55:58.589Z,49.36
2023-05-10T15:58:29.369Z,46.67
2023-05-10T16:01:18.492Z,46.61
2023-05-10T16:03:52.882Z,47.06
2023-05-10T16:06:28.435Z,46.52
2023-05-10T16:11:46.043Z,46.96
2023-05-10T16:14:20.419Z,46.63
2023-05-10T16:16:59.475Z,46.66
2023-05-10T16:19:45.666Z,47.24
2023-05-10T16:22:43.244Z,46.53
2023-05-10T16:25:15.847Z,46.90
2023-05-10T16:27:49.328Z,46.45
2023-05-10T16:30:30.231Z,45.35
2023-05-10T16:33:06.005Z,46.61
2023-05-10T16:35:37.496Z,47.77
2023-05-10T16:38:08.739Z,46.42
2023-05-10T16:40:38.902Z,46.79
2023-05-10T16:43:09.167Z,47.45
2023-05-10T16:45:39.582Z,47.56
2023-05-10T16:48:09.683Z,48.35
2023-05-10T16:50:41.097Z,48.11
2023-05-10T16:53:13.059Z,46.63
2023-05-10T16:55:43.491Z,47.50
2023-05-10T16:58:13.519Z,47.11
2023-05-10T17:00:44.267Z,48.18
2023-05-10T17:03:14.458Z,47.57
2023-05-10T17:05:45.523Z,47.42
2023-05-10T17:08:17.334Z,46.41
2023-05-10T17:10:48.162Z,45.13
2023-05-10T17:13:19.356Z,45.31
2023-05-10T17:15:50.271Z,45.86
2023-05-10T17:18:21.840Z,44.13
2023-05-10T17:20:52.998Z,47.02
2023-05-10T17:23:23.162Z,44.29
2023-05-10T17:25:53.190Z,44.35
2023-05-10T17:28:23.590Z,43.78
2023-05-10T17:31:01.635Z,44.65
2023-05-10T17:33:32.763Z,44.67
2023-05-10T17:36:04.024Z,44.54
2023-05-10T17:38:34.274Z,44.39
2023-05-10T17:41:05.056Z,43.64
2023-05-10T17:43:35.429Z,43.57
2023-05-10T17:46:05.472Z,43.46
2023-05-10T17:48:38.326Z,45.63
2023-05-10T17:51:09.742Z,44.83
2023-05-10T17:53:42.596Z,42.85
2023-05-10T17:56:14.209Z,43.25
2023-05-10T17:58:45.449Z,44.31
2023-05-10T18:01:16.133Z,44.52
2023-05-10T18:03:47.389Z,43.71
2023-05-10T18:06:17.582Z,44.77
2023-05-10T18:08:47.784Z,43.76
2023-05-10T18:11:21.091Z,44.95
2023-05-10T18:13:52.817Z,45.10
2023-05-10T18:16:23.831Z,44.54
2023-05-10T18:18:54.990Z,43.70
2023-05-10T18:21:26.752Z,44.00
2023-05-10T18:23:58.281Z,46.08
2023-05-10T18:26:29.172Z,44.71
2023-05-10T18:29:01.657Z,45.02
2023-05-10T18:31:35.394Z,44.76
2023-05-10T18:34:07.205Z,45.35
2023-05-10T18:36:38.462Z,47.09
2023-05-10T18:39:13.124Z,45.05
2023-05-10T18:41:45.756Z,46.40
2023-05-10T18:44:17.474Z,46.94
2023-05-10T18:46:50.985Z,46.35
2023-05-10T18:49:24.414Z,47.86
2023-05-10T18:51:55.738Z,46.88
2023-05-10T18:54:26.531Z,46.50
2023-05-10T18:57:01.280Z,45.96
2023-05-10T18:59:33.859Z,46.59
2023-05-10T19:02:05.058Z,46.90
2023-05-10T19:04:36.331Z,47.03
2023-05-10T19:07:06.997Z,47.28
2023-05-10T19:09:37.582Z,48.71
2023-05-10T19:12:08.632Z,47.34
2023-05-10T19:14:39.111Z,48.29
2023-05-10T19:17:09.502Z,48.46
2023-05-10T19:19:39.863Z,48.95
2023-05-10T19:22:11.221Z,48.58
2023-05-10T19:24:43.993Z,47.65
2023-05-10T19:27:15.820Z,48.26
2023-05-10T19:29:46.094Z,48.20
2023-05-10T19:32:16.098Z,48.60
2023-05-10T19:34:46.273Z,49.52
2023-05-10T19:37:17.013Z,51.05
2023-05-10T19:39:48.276Z,50.70
2023-05-10T19:42:21.452Z,50.99
2023-05-10T19:44:53.449Z,51.53
2023-05-10T19:47:24.887Z,52.39
2023-05-10T19:49:55.984Z,52.69
2023-05-10T19:52:26.579Z,52.66
2023-05-10T19:54:56.552Z,52.86
2023-05-10T19:57:26.935Z,52.63
2023-05-10T19:59:56.933Z,52.81
2023-05-10T20:02:27.958Z,53.30
2023-05-10T20:04:58.923Z,54.04
2023-05-10T20:07:29.080Z,54.12
2023-05-10T20:09:59.149Z,54.60
2023-05-10T20:12:30.791Z,54.97
2023-05-10T20:15:01.768Z,55.24
2023-05-10T20:17:33.439Z,56.09
2023-05-10T20:20:05.104Z,57.15
2023-05-10T20:22:36.054Z,57.39
2023-05-10T20:25:06.782Z,57.40
2023-05-10T20:27:36.858Z,57.39
2023-05-10T20:30:08.489Z,57.67
2023-05-10T20:32:41.777Z,57.52
2023-05-10T20:35:12.748Z,57.50
2023-05-10T20:37:42.842Z,57.32
2023-05-10T20:40:13.576Z,57.64
2023-05-10T20:42:43.293Z,57.16
2023-05-10T20:45:18.173Z,57.49
2023-05-10T20:47:49.349Z,58.11
2023-05-10T20:50:19.838Z,58.05
2023-05-10T20:52:53.210Z,58.49
2023-05-10T20:55:23.473Z,58.51
2023-05-10T20:57:55.484Z,58.37
2023-05-10T21:00:25.959Z,58.60
2023-05-10T21:02:56.550Z,58.81
2023-05-10T21:05:27.208Z,57.87
2023-05-10T21:07:57.658Z,58.60
2023-05-10T21:10:29.748Z,57.75
2023-05-10T21:13:00.888Z,58.38
2023-05-10T21:15:31.165Z,58.15
2023-05-10T21:18:01.437Z,58.81
2023-05-10T21:20:32.439Z,58.84
2023-05-10T21:23:02.539Z,59.21
2023-05-10T21:25:33.976Z,59.39
2023-05-10T21:28:05.717Z,59.74
2023-05-10T21:30:37.017Z,59.77
2023-05-10T21:33:07.523Z,60.01
2023-05-10T21:35:40.724Z,60.29
2023-05-10T21:38:11.498Z,60.44
2023-05-10T21:40:42.056Z,60.56
2023-05-10T21:43:12.715Z,60.57
2023-05-10T21:45:42.854Z,60.71
2023-05-10T21:48:14.512Z,61.01
2023-05-10T21:50:46.110Z,61.36
2023-05-10T21:53:16.790Z,61.41
2023-05-10T21:55:47.539Z,61.27
2023-05-10T21:58:17.886Z,61.49
2023-05-10T22:00:48.099Z,61.29
2023-05-10T22:03:20.177Z,61.35
2023-05-10T22:05:51.387Z,61.55
2023-05-10T22:08:23.097Z,61.92
2023-05-10T22:10:55.168Z,61.52
2023-05-10T22:13:25.456Z,61.89
2023-05-10T22:15:55.511Z,62.24
2023-05-10T22:18:25.942Z,62.10
2023-05-10T22:20:55.982Z,62.38
2023-05-10T22:23:27.108Z,63.03
2023-05-10T22:26:02.738Z,62.99
2023-05-10T22:28:33.959Z,63.19
2023-05-10T22:31:05.543Z,63.00
2023-05-10T22:33:36.510Z,62.89
2023-05-10T22:36:08.284Z,62.97
2023-05-10T22:38:39.750Z,63.09
2023-05-10T22:41:09.877Z,63.20
2023-05-10T22:43:39.929Z,63.16
2023-05-10T22:46:10.237Z,63.12
2023-05-10T22:48:41.015Z,63.29
2023-05-10T22:51:12.988Z,63.62
2023-05-10T22:53:43.421Z,63.88
2023-05-10T22:56:14.159Z,64.00
2023-05-10T22:58:44.751Z,63.91
2023-05-10T23:01:15.804Z,64.28
2023-05-10T23:03:45.871Z,64.58
2023-05-10T23:06:17.006Z,64.74
2023-05-10T23:08:47.197Z,64.59
2023-05-10T23:11:17.455Z,64.43
2023-05-10T23:13:48.997Z,64.38
2023-05-10T23:16:20.665Z,64.48
2023-05-10T23:18:51.678Z,64.64
2023-05-10T23:21:21.796Z,65.04
2023-05-10T23:23:52.079Z,64.91
2023-05-10T23:26:23.158Z,65.30
2023-05-10T23:28:53.302Z,65.15
2023-05-10T23:31:24.089Z,64.82
2023-05-10T23:33:54.710Z,64.73
2023-05-10T23:36:25.594Z,64.63
2023-05-10T23:38:56.732Z,64.15
2023-05-10T23:41:27.821Z,64.01
2023-05-10T23:43:58.775Z,64.41
2023-05-10T23:46:28.836Z,64.17
2023-05-10T23:48:59.150Z,64.20
2023-05-10T23:51:30.861Z,64.42
2023-05-10T23:54:02.428Z,64.06
2023-05-10T23:56:32.723Z,63.71
2023-05-10T23:59:02.760Z,62.98
